This is the latest recevied weather packets stored in our database for station/object DL3GCR-10. If no packets are shown the sender has not sent any weather packets the latest 10 day(s).
| Time | Temp. | Humidity | Pressure | Rain* | Wind** | Luminosity | Snow |
|---|---|---|---|---|---|---|---|
| 1777337526 | 11.67° C | 51% | 1018.3 hPa | - | - | - | - |
| 1777336625 | 11.67° C | 51% | 1018.5 hPa | - | - | - | - |
| 1777335725 | 11.67° C | 52% | 1018.6 hPa | - | - | - | - |
| 1777334825 | 12.22° C | 50% | 1018.7 hPa | - | - | - | - |
| 1777333925 | 12.22° C | 49% | 1018.6 hPa | - | - | - | - |
| 1777333025 | 12.22° C | 50% | 1018.6 hPa | - | - | - | - |
| 1777332125 | 12.78° C | 47% | 1018.6 hPa | - | - | - | - |
| 1777331224 | 13.33° C | 42% | 1018.6 hPa | - | - | - | - |
| 1777330324 | 12.78° C | 46% | 1018.7 hPa | - | - | - | - |
| 1777328523 | 12.78° C | 47% | 1018.9 hPa | - | - | - | - |
| 1777327623 | 13.33° C | 43% | 1018.9 hPa | - | - | - | - |
| 1777326722 | 13.89° C | 42% | 1018.9 hPa | - | - | - | - |
| 1777325822 | 13.89° C | 43% | 1019 hPa | - | - | - | - |
| 1777324922 | 13.89° C | 45% | 1019 hPa | - | - | - | - |
| 1777324022 | 13.89° C | 43% | 1019.3 hPa | - | - | - | - |
| 1777323122 | 13.89° C | 46% | 1019.3 hPa | - | - | - | - |
| 1777322222 | 14.44° C | 45% | 1019.4 hPa | - | - | - | - |
| 1777321321 | 15° C | 41% | 1019.4 hPa | - | - | - | - |
| 1777320421 | 15° C | 43% | 1019.3 hPa | - | - | - | - |
| 1777319521 | 15.56° C | 41% | 1019.4 hPa | - | - | - | - |
| 1777318621 | 15.56° C | 40% | 1019.4 hPa | - | - | - | - |
| 1777317721 | 16.11° C | 41% | 1019.4 hPa | - | - | - | - |
| 1777316821 | 16.67° C | 39% | 1019.3 hPa | - | - | - | - |
| 1777315920 | 17.78° C | 34% | 1019.2 hPa | - | - | - | - |
| 1777315020 | 17.78° C | 32% | 1019 hPa | - | - | - | - |
* Rain since midnight (hover to see other rain measurements)
** Current wind speed in m/s (hover to see current wind gust speed)